createdAt,value
2022-11-16T00:01:19.461Z,83.02
2022-11-16T00:03:45.891Z,81.44
2022-11-16T00:06:12.308Z,81.92
2022-11-16T00:08:38.712Z,81.54
2022-11-16T00:11:05.131Z,82.45
2022-11-16T00:13:31.555Z,82.11
2022-11-16T00:15:57.973Z,81.97
2022-11-16T00:18:24.427Z,82.03
2022-11-16T00:20:50.845Z,81.90
2022-11-16T00:23:17.290Z,81.93
2022-11-16T00:25:43.715Z,82.29
2022-11-16T00:28:10.138Z,81.43
2022-11-16T00:30:36.559Z,81.69
2022-11-16T00:33:02.988Z,81.75
2022-11-16T00:35:29.400Z,81.46
2022-11-16T00:37:55.791Z,81.07
2022-11-16T00:40:22.210Z,81.16
2022-11-16T00:42:48.633Z,80.85
2022-11-16T00:45:15.033Z,81.96
2022-11-16T00:47:41.473Z,82.38
2022-11-16T00:50:07.914Z,82.20
2022-11-16T00:52:34.329Z,81.95
2022-11-16T00:55:00.761Z,82.53
2022-11-16T00:57:27.163Z,82.66
2022-11-16T00:59:53.582Z,81.95
2022-11-16T01:02:20.016Z,82.51
2022-11-16T01:04:46.417Z,81.76
2022-11-16T01:07:12.913Z,81.33
2022-11-16T01:09:39.347Z,81.59
2022-11-16T01:12:05.756Z,82.37
2022-11-16T01:14:32.191Z,82.30
2022-11-16T01:16:58.605Z,82.85
2022-11-16T01:19:25.031Z,82.23
2022-11-16T01:21:51.431Z,82.09
2022-11-16T01:24:17.869Z,82.50
2022-11-16T01:26:44.283Z,82.43
2022-11-16T01:29:10.679Z,82.22
2022-11-16T01:31:37.106Z,81.86
2022-11-16T01:34:03.514Z,81.99
2022-11-16T01:36:29.944Z,82.50
2022-11-16T01:38:56.358Z,82.34
2022-11-16T01:41:22.755Z,82.06
2022-11-16T01:43:49.179Z,81.37
2022-11-16T01:46:15.579Z,81.71
2022-11-16T01:48:42.044Z,81.25
2022-11-16T01:51:08.542Z,81.39
2022-11-16T01:53:34.965Z,81.48
2022-11-16T01:56:01.409Z,81.76
2022-11-16T01:58:27.827Z,81.31
2022-11-16T02:00:54.259Z,81.75
2022-11-16T02:03:20.706Z,80.86
2022-11-16T02:05:47.143Z,80.96
2022-11-16T02:08:13.585Z,81.47
2022-11-16T02:10:39.992Z,80.50
2022-11-16T02:13:06.409Z,82.26
2022-11-16T02:15:32.821Z,82.51
2022-11-16T02:17:59.454Z,82.49
2022-11-16T02:20:25.921Z,82.06
2022-11-16T02:22:52.346Z,82.20
2022-11-16T02:25:18.772Z,81.35
2022-11-16T02:27:45.197Z,82.52
2022-11-16T02:30:11.622Z,82.30
2022-11-16T02:32:38.019Z,82.27
2022-11-16T02:35:04.440Z,81.81
2022-11-16T02:37:30.842Z,81.71
2022-11-16T02:39:57.239Z,82.01
2022-11-16T02:42:23.650Z,81.69
2022-11-16T02:44:50.051Z,81.75
2022-11-16T02:47:16.468Z,81.76
2022-11-16T02:49:42.873Z,81.96
2022-11-16T02:52:09.289Z,82.47
2022-11-16T02:54:35.734Z,82.13
2022-11-16T02:57:02.154Z,81.69
2022-11-16T02:59:28.580Z,81.84
2022-11-16T03:01:55.006Z,81.58
2022-11-16T03:04:21.406Z,81.89
2022-11-16T03:06:47.915Z,81.90
2022-11-16T03:09:14.397Z,81.21
2022-11-16T03:11:40.824Z,80.80
2022-11-16T03:14:07.773Z,81.32
2022-11-16T03:16:34.189Z,81.30
2022-11-16T03:19:00.605Z,81.73
2022-11-16T03:21:27.017Z,81.04
2022-11-16T03:23:53.522Z,81.60
2022-11-16T03:26:19.922Z,81.50
2022-11-16T03:28:46.370Z,80.86
2022-11-16T03:31:12.808Z,80.68
2022-11-16T03:33:39.222Z,81.08
2022-11-16T03:36:05.646Z,81.48
2022-11-16T03:38:32.336Z,81.24
2022-11-16T03:40:59.006Z,81.22
2022-11-16T03:43:25.478Z,81.88
2022-11-16T03:45:51.902Z,81.93
2022-11-16T03:48:18.299Z,81.57
2022-11-16T03:50:44.724Z,81.61
2022-11-16T03:53:11.132Z,81.98
2022-11-16T03:55:37.531Z,81.85
2022-11-16T03:58:03.998Z,81.97
2022-11-16T04:00:30.461Z,81.44
2022-11-16T04:02:56.931Z,81.53
2022-11-16T04:05:23.433Z,81.37
2022-11-16T04:07:49.850Z,81.22
2022-11-16T04:10:16.265Z,81.53
2022-11-16T04:12:42.698Z,81.63
2022-11-16T04:15:09.142Z,80.70
2022-11-16T04:17:35.565Z,81.57
2022-11-16T04:20:01.978Z,81.09
2022-11-16T04:22:28.396Z,81.48
2022-11-16T04:24:54.839Z,81.65
2022-11-16T04:27:21.321Z,81.43
2022-11-16T04:29:47.746Z,81.53
2022-11-16T04:32:14.175Z,81.32
2022-11-16T04:34:40.571Z,80.77
2022-11-16T04:37:07.009Z,81.23
2022-11-16T04:39:33.418Z,81.34
2022-11-16T04:41:59.838Z,80.98
2022-11-16T04:44:29.991Z,80.94
2022-11-16T04:46:56.555Z,81.26
2022-11-16T04:49:22.967Z,80.71
2022-11-16T04:51:49.386Z,81.00
2022-11-16T04:54:15.798Z,81.13
2022-11-16T04:56:42.204Z,80.48
2022-11-16T04:59:08.811Z,80.92
2022-11-16T05:01:35.278Z,79.23
2022-11-16T05:04:02.505Z,79.06
2022-11-16T05:06:28.936Z,77.09
2022-11-16T05:08:55.332Z,76.89
2022-11-16T05:11:21.726Z,77.93
2022-11-16T05:13:48.148Z,76.74
2022-11-16T05:16:14.555Z,76.58
2022-11-16T05:18:40.973Z,77.47
2022-11-16T05:21:07.373Z,77.43
2022-11-16T05:23:33.822Z,78.93
2022-11-16T05:26:00.235Z,77.85
2022-11-16T05:28:26.640Z,76.91
2022-11-16T05:30:53.116Z,76.19
2022-11-16T05:33:19.517Z,78.86
2022-11-16T05:35:45.901Z,75.99
2022-11-16T05:38:12.318Z,74.82
2022-11-16T05:40:38.720Z,77.85
2022-11-16T05:43:05.094Z,79.25
2022-11-16T05:45:31.497Z,78.84
2022-11-16T05:47:57.882Z,77.80
2022-11-16T05:50:24.288Z,75.81
2022-11-16T05:52:50.727Z,77.13
2022-11-16T05:55:17.141Z,77.57
2022-11-16T05:57:43.530Z,77.96
2022-11-16T06:00:09.943Z,76.84
2022-11-16T06:02:36.413Z,78.10
2022-11-16T06:05:02.884Z,77.80
2022-11-16T06:07:29.367Z,78.64
2022-11-16T06:09:55.919Z,78.62
2022-11-16T06:12:22.417Z,78.24
2022-11-16T06:14:48.893Z,78.57
2022-11-16T06:17:17.364Z,75.02
2022-11-16T06:19:43.746Z,77.24
2022-11-16T06:22:10.161Z,77.75
2022-11-16T06:24:37.098Z,77.59
2022-11-16T06:27:03.503Z,75.99
2022-11-16T06:29:29.913Z,76.37
2022-11-16T06:31:56.319Z,76.03
2022-11-16T06:34:22.712Z,75.30
2022-11-16T06:36:49.131Z,76.99
2022-11-16T06:39:15.635Z,77.85
2022-11-16T06:41:42.024Z,77.38
2022-11-16T06:44:08.419Z,74.94
2022-11-16T06:46:34.837Z,73.06
2022-11-16T06:49:01.245Z,74.04
2022-11-16T06:51:27.656Z,73.76
2022-11-16T06:53:54.082Z,72.10
2022-11-16T06:56:20.482Z,71.76
2022-11-16T06:58:46.885Z,76.18
2022-11-16T07:01:13.320Z,77.14
2022-11-16T07:03:39.920Z,77.09
2022-11-16T07:06:07.536Z,74.21
2022-11-16T07:08:34.023Z,75.89
2022-11-16T07:11:04.152Z,76.71
2022-11-16T07:13:30.863Z,77.88
2022-11-16T07:15:57.259Z,77.95
2022-11-16T07:18:23.660Z,77.06
2022-11-16T07:20:50.088Z,77.73
2022-11-16T07:23:16.488Z,77.00
2022-11-16T07:25:43.156Z,77.82
2022-11-16T07:28:09.541Z,77.67
2022-11-16T07:30:35.935Z,77.43
2022-11-16T07:33:02.340Z,77.23
2022-11-16T07:35:28.738Z,72.22
2022-11-16T07:37:55.130Z,75.71
2022-11-16T07:40:21.535Z,75.79
2022-11-16T07:42:47.957Z,76.97
2022-11-16T07:45:14.327Z,73.97
2022-11-16T07:47:40.713Z,76.17
2022-11-16T07:50:07.123Z,75.39
2022-11-16T07:52:33.513Z,75.27
2022-11-16T07:54:59.887Z,76.34
2022-11-16T07:57:26.276Z,76.68
2022-11-16T07:59:52.796Z,76.77
2022-11-16T08:02:19.200Z,77.09
2022-11-16T08:04:45.617Z,77.29
2022-11-16T08:07:12.044Z,76.41
2022-11-16T08:09:38.482Z,76.61
2022-11-16T08:12:05.068Z,76.65
2022-11-16T08:14:31.466Z,78.07
2022-11-16T08:16:57.955Z,77.01
2022-11-16T08:19:24.341Z,76.75
2022-11-16T08:21:50.716Z,76.69
2022-11-16T08:24:17.235Z,76.81
2022-11-16T08:26:43.654Z,76.83
2022-11-16T08:29:10.074Z,74.48
2022-11-16T08:31:36.467Z,74.11
2022-11-16T08:34:02.895Z,75.08
2022-11-16T08:36:29.276Z,76.18
2022-11-16T08:38:55.673Z,73.18
2022-11-16T08:41:22.205Z,74.58
2022-11-16T08:43:48.611Z,72.46
2022-11-16T08:46:15.004Z,74.22
2022-11-16T08:48:42.002Z,72.75
2022-11-16T08:51:23.774Z,73.66
2022-11-16T08:53:50.175Z,73.74
2022-11-16T08:56:16.591Z,73.51
2022-11-16T08:58:43.042Z,74.59
2022-11-16T09:01:09.430Z,74.33
2022-11-16T09:03:35.891Z,75.49
2022-11-16T09:06:02.330Z,74.38
2022-11-16T09:08:28.739Z,73.93
2022-11-16T09:10:55.153Z,73.99
2022-11-16T09:13:21.538Z,74.20
2022-11-16T09:15:47.917Z,74.28
2022-11-16T09:18:14.333Z,73.32
2022-11-16T09:20:40.737Z,73.54
2022-11-16T09:23:07.129Z,72.66
2022-11-16T09:25:33.517Z,69.86
2022-11-16T09:27:59.905Z,70.57
2022-11-16T09:30:26.309Z,70.45
2022-11-16T09:32:52.695Z,71.04
2022-11-16T09:35:19.186Z,72.35
2022-11-16T09:37:45.560Z,71.76
2022-11-16T09:40:11.940Z,71.22
2022-11-16T09:42:38.377Z,71.92
2022-11-16T09:45:04.924Z,72.30
2022-11-16T09:47:31.428Z,70.64
2022-11-16T09:50:02.922Z,70.78
2022-11-16T09:52:30.221Z,70.91
2022-11-16T09:54:56.616Z,69.25
2022-11-16T09:57:23.016Z,70.20
2022-11-16T09:59:49.421Z,70.56
2022-11-16T10:02:15.893Z,70.82
2022-11-16T10:04:42.295Z,70.72
2022-11-16T10:07:08.737Z,70.59
2022-11-16T10:09:35.164Z,68.90
2022-11-16T10:12:01.556Z,70.38
2022-11-16T10:14:27.965Z,69.69
2022-11-16T10:16:54.354Z,71.30
2022-11-16T10:19:20.854Z,69.86
2022-11-16T10:21:47.240Z,70.36
2022-11-16T10:24:13.614Z,70.26
2022-11-16T10:26:40.020Z,70.47
2022-11-16T10:29:06.410Z,70.56
2022-11-16T10:31:32.787Z,70.62
2022-11-16T10:33:59.178Z,69.28
2022-11-16T10:36:25.567Z,69.78
2022-11-16T10:38:51.960Z,70.03
2022-11-16T10:41:18.366Z,69.86
2022-11-16T10:43:44.752Z,70.51
2022-11-16T10:46:11.141Z,69.89
2022-11-16T10:48:37.558Z,70.19
2022-11-16T10:51:03.957Z,70.57
2022-11-16T10:53:30.359Z,69.76
2022-11-16T10:55:56.760Z,70.59
2022-11-16T10:58:23.268Z,71.79
2022-11-16T11:00:49.744Z,70.26
2022-11-16T11:03:16.175Z,71.03
2022-11-16T11:05:42.586Z,71.17
2022-11-16T11:08:09.008Z,70.92
2022-11-16T11:10:35.415Z,70.02
2022-11-16T11:13:01.841Z,69.71
2022-11-16T11:15:28.243Z,71.59
2022-11-16T11:17:54.668Z,71.30
2022-11-16T11:20:21.058Z,70.48
2022-11-16T11:22:47.471Z,71.14
2022-11-16T11:25:13.874Z,71.81
2022-11-16T11:27:40.268Z,69.66
2022-11-16T11:30:06.647Z,68.30
2022-11-16T11:32:33.022Z,69.73
2022-11-16T11:34:59.427Z,68.72
2022-11-16T11:37:25.915Z,68.15
2022-11-16T11:39:52.324Z,68.64
2022-11-16T11:42:18.739Z,68.54
2022-11-16T11:44:45.143Z,68.02
2022-11-16T11:47:55.591Z,67.76
2022-11-16T11:49:57.981Z,66.04
2022-11-16T11:52:24.382Z,68.33
2022-11-16T11:54:50.758Z,67.25
2022-11-16T11:57:17.179Z,66.18
2022-11-16T11:59:43.581Z,67.20
2022-11-16T12:02:09.987Z,67.69
2022-11-16T12:04:36.371Z,66.21
2022-11-16T12:07:02.835Z,66.55
2022-11-16T12:09:29.270Z,65.95
2022-11-16T12:11:55.646Z,66.47
2022-11-16T12:14:22.042Z,66.26
2022-11-16T12:16:48.465Z,65.09
2022-11-16T12:19:14.875Z,63.69
2022-11-16T12:21:41.288Z,65.97
2022-11-16T12:24:07.668Z,65.37
2022-11-16T12:26:34.055Z,65.17
2022-11-16T12:29:00.482Z,64.59
2022-11-16T12:31:26.865Z,64.44
2022-11-16T12:33:53.255Z,64.68
2022-11-16T12:36:19.681Z,65.36
2022-11-16T12:38:46.068Z,65.80
2022-11-16T12:41:12.559Z,65.90
2022-11-16T12:43:38.964Z,64.90
2022-11-16T12:46:05.351Z,63.64
2022-11-16T12:48:31.742Z,64.57
2022-11-16T12:50:58.165Z,63.99
2022-11-16T12:53:24.550Z,65.66
2022-11-16T12:55:50.942Z,65.08
2022-11-16T12:58:17.334Z,64.00
2022-11-16T13:00:43.806Z,64.00
2022-11-16T13:03:10.214Z,64.50
2022-11-16T13:05:36.608Z,64.50
2022-11-16T13:08:03.001Z,63.63
2022-11-16T13:10:29.410Z,65.83
2022-11-16T13:13:09.300Z,64.67
2022-11-16T13:15:42.214Z,64.36
2022-11-16T13:18:08.643Z,66.50
2022-11-16T13:20:35.033Z,66.24
2022-11-16T13:23:01.446Z,63.86
2022-11-16T13:25:27.820Z,65.40
2022-11-16T13:27:54.203Z,65.35
2022-11-16T13:30:20.620Z,64.71
2022-11-16T13:32:46.997Z,65.05
2022-11-16T13:35:13.411Z,64.52
2022-11-16T13:37:39.827Z,64.57
2022-11-16T13:40:06.262Z,63.62
2022-11-16T13:42:32.669Z,64.17
2022-11-16T13:44:59.080Z,65.14
2022-11-16T13:47:25.571Z,64.77
2022-11-16T13:49:51.968Z,65.85
2022-11-16T13:52:23.873Z,65.61
2022-11-16T13:54:51.684Z,65.09
2022-11-16T13:57:18.456Z,66.00
2022-11-16T13:59:44.932Z,66.59
2022-11-16T14:02:11.338Z,66.51
2022-11-16T14:04:37.759Z,63.00
2022-11-16T14:07:04.250Z,65.77
2022-11-16T14:09:33.198Z,64.37
2022-11-16T14:11:59.648Z,61.66
2022-11-16T14:14:26.067Z,63.35
2022-11-16T14:16:52.476Z,62.57
2022-11-16T14:19:18.883Z,63.77
2022-11-16T14:21:45.291Z,63.43
2022-11-16T14:24:11.701Z,62.89
2022-11-16T14:26:38.128Z,62.61
2022-11-16T14:29:04.530Z,63.96
2022-11-16T14:31:30.904Z,64.03
2022-11-16T14:33:57.313Z,62.41
2022-11-16T14:36:23.712Z,63.96
2022-11-16T14:38:50.112Z,61.17
2022-11-16T14:41:16.493Z,63.03
2022-11-16T14:43:42.914Z,63.14
2022-11-16T14:46:09.322Z,62.59
2022-11-16T14:48:35.764Z,63.02
2022-11-16T14:51:02.240Z,62.38
2022-11-16T14:53:28.663Z,63.04
2022-11-16T14:55:55.051Z,63.27
2022-11-16T14:58:21.697Z,63.58
2022-11-16T15:00:48.156Z,64.88
2022-11-16T15:03:14.622Z,64.55
2022-11-16T15:05:41.053Z,64.14
2022-11-16T15:08:07.440Z,64.32
2022-11-16T15:10:33.881Z,64.92
2022-11-16T15:13:00.259Z,65.51
2022-11-16T15:15:26.644Z,64.71
2022-11-16T15:17:53.074Z,64.74
2022-11-16T15:20:19.469Z,65.80
2022-11-16T15:22:45.877Z,64.49
2022-11-16T15:25:12.273Z,64.58
2022-11-16T15:27:38.682Z,64.57
2022-11-16T15:30:05.106Z,64.65
2022-11-16T15:32:31.489Z,64.68
2022-11-16T15:35:02.447Z,65.35
2022-11-16T15:37:31.447Z,64.77
2022-11-16T15:39:57.867Z,64.79
2022-11-16T15:42:24.254Z,65.79
2022-11-16T15:44:50.633Z,65.85
2022-11-16T15:47:17.086Z,65.42
2022-11-16T15:49:43.483Z,66.21
2022-11-16T15:52:09.900Z,66.33
2022-11-16T15:54:36.309Z,66.72
2022-11-16T15:57:02.707Z,67.19
2022-11-16T15:59:29.085Z,67.42
2022-11-16T16:01:55.529Z,66.68
2022-11-16T16:04:21.968Z,67.33
2022-11-16T16:06:48.525Z,66.34
2022-11-16T16:09:15.082Z,67.10
2022-11-16T16:11:41.487Z,67.00
2022-11-16T16:14:07.899Z,67.37
2022-11-16T16:16:34.307Z,66.83
2022-11-16T16:19:04.955Z,67.63
2022-11-16T16:21:34.676Z,67.31
2022-11-16T16:24:01.138Z,67.31
2022-11-16T16:26:27.531Z,68.29
2022-11-16T16:28:53.959Z,69.05
2022-11-16T16:31:20.375Z,69.17
2022-11-16T16:33:46.802Z,69.38
2022-11-16T16:36:13.206Z,68.75
2022-11-16T16:38:39.624Z,68.96
2022-11-16T16:41:06.063Z,68.19
2022-11-16T16:43:32.802Z,69.07
2022-11-16T16:45:59.435Z,68.38
2022-11-16T16:48:25.843Z,68.23
2022-11-16T16:50:52.246Z,68.82
2022-11-16T16:53:18.681Z,69.47
2022-11-16T16:55:45.114Z,70.06
2022-11-16T16:58:11.512Z,69.12
2022-11-16T17:00:38.038Z,69.61
2022-11-16T17:03:04.510Z,69.85
2022-11-16T17:05:30.890Z,69.35
2022-11-16T17:07:57.314Z,69.24
2022-11-16T17:10:23.714Z,68.49
2022-11-16T17:12:50.262Z,68.75
2022-11-16T17:15:19.508Z,69.16
2022-11-16T17:17:46.066Z,69.15
2022-11-16T17:20:12.434Z,68.22
2022-11-16T17:22:38.910Z,68.33
2022-11-16T17:25:05.306Z,68.30
2022-11-16T17:27:31.687Z,68.71
2022-11-16T17:29:58.072Z,68.54
2022-11-16T17:32:24.485Z,68.60
2022-11-16T17:34:50.914Z,68.18
2022-11-16T17:37:17.324Z,68.79
2022-11-16T17:39:43.720Z,68.80
2022-11-16T17:42:10.129Z,68.19
2022-11-16T17:44:36.515Z,68.86
2022-11-16T17:47:02.923Z,68.58
2022-11-16T17:49:29.319Z,67.78
2022-11-16T17:51:55.715Z,67.18
2022-11-16T17:54:22.130Z,66.34
2022-11-16T17:56:48.512Z,65.84
2022-11-16T17:59:14.888Z,66.89
2022-11-16T18:01:41.305Z,65.97
2022-11-16T18:04:07.728Z,67.21
2022-11-16T18:06:34.132Z,65.58
2022-11-16T18:09:00.533Z,66.07
2022-11-16T18:11:26.998Z,66.89
2022-11-16T18:13:53.414Z,66.97
2022-11-16T18:16:19.827Z,66.21
2022-11-16T18:18:46.260Z,66.52
2022-11-16T18:21:18.791Z,66.52
2022-11-16T18:23:46.721Z,66.55
2022-11-16T18:26:13.184Z,66.29
2022-11-16T18:28:39.659Z,67.34
2022-11-16T18:31:06.085Z,67.06
2022-11-16T18:33:32.810Z,66.97
2022-11-16T18:35:59.596Z,67.06
2022-11-16T18:38:25.995Z,66.49
2022-11-16T18:40:52.392Z,66.91
2022-11-16T18:43:18.818Z,67.42
2022-11-16T18:45:45.203Z,66.84
2022-11-16T18:48:11.622Z,67.76
2022-11-16T18:50:38.018Z,64.68
2022-11-16T18:53:04.434Z,65.82
2022-11-16T18:55:30.867Z,65.12
2022-11-16T18:57:57.291Z,64.39
2022-11-16T19:00:23.712Z,65.18
2022-11-16T19:02:50.238Z,64.12
2022-11-16T19:05:16.668Z,65.25
2022-11-16T19:07:43.089Z,64.17
2022-11-16T19:10:09.527Z,64.46
2022-11-16T19:12:35.934Z,64.01
2022-11-16T19:15:02.401Z,64.11
2022-11-16T19:17:28.807Z,63.90
2022-11-16T19:19:55.238Z,63.62
2022-11-16T19:22:21.647Z,62.93
2022-11-16T19:24:48.056Z,63.91
2022-11-16T19:27:14.541Z,63.52
2022-11-16T19:29:40.950Z,63.41
2022-11-16T19:32:07.403Z,62.24
2022-11-16T19:34:33.809Z,63.14
2022-11-16T19:37:00.249Z,63.00
2022-11-16T19:39:26.637Z,62.91
2022-11-16T19:41:53.066Z,62.88
2022-11-16T19:44:19.471Z,62.27
2022-11-16T19:46:45.899Z,61.98
2022-11-16T19:49:19.448Z,62.03
2022-11-16T19:51:46.319Z,62.85
2022-11-16T19:54:12.723Z,62.08
2022-11-16T19:56:39.347Z,62.45
2022-11-16T19:59:05.755Z,61.99
2022-11-16T20:01:32.297Z,62.60
2022-11-16T20:03:59.415Z,63.25
2022-11-16T20:06:27.002Z,62.85
2022-11-16T20:08:53.404Z,61.92
2022-11-16T20:11:19.879Z,62.38
2022-11-16T20:13:46.782Z,62.15
2022-11-16T20:16:13.388Z,61.13
2022-11-16T20:18:41.048Z,61.73
2022-11-16T20:21:07.491Z,63.03
2022-11-16T20:23:34.221Z,62.29
2022-11-16T20:26:00.832Z,62.37
2022-11-16T20:28:27.229Z,61.61
2022-11-16T20:30:53.676Z,61.35
2022-11-16T20:33:20.075Z,62.35
2022-11-16T20:35:46.681Z,61.89
2022-11-16T20:38:14.796Z,62.11
2022-11-16T20:40:41.392Z,60.94
2022-11-16T20:43:07.963Z,60.56
2022-11-16T20:45:34.386Z,61.83
2022-11-16T20:48:00.812Z,61.17
2022-11-16T20:50:27.230Z,60.68
2022-11-16T20:52:54.328Z,60.85
2022-11-16T20:55:20.754Z,61.11
2022-11-16T20:57:47.496Z,60.40
2022-11-16T21:00:13.955Z,59.30
2022-11-16T21:02:40.429Z,60.21
2022-11-16T21:05:06.847Z,60.97
2022-11-16T21:07:33.297Z,60.67
2022-11-16T21:09:59.814Z,61.01
2022-11-16T21:12:26.187Z,60.94
2022-11-16T21:14:52.610Z,61.92
2022-11-16T21:17:19.002Z,61.73
2022-11-16T21:20:05.350Z,60.79
2022-11-16T21:23:46.716Z,61.28
2022-11-16T21:25:20.290Z,61.30
2022-11-16T21:27:46.881Z,62.33
2022-11-16T21:30:13.465Z,61.56
2022-11-16T21:32:40.176Z,61.82
2022-11-16T21:35:07.657Z,62.01
2022-11-16T21:37:34.244Z,61.84
2022-11-16T21:40:02.832Z,62.39
2022-11-16T21:42:29.447Z,62.06
2022-11-16T21:44:55.916Z,62.75
2022-11-16T21:47:22.330Z,62.34
2022-11-16T21:50:16.920Z,62.04
2022-11-16T21:52:35.100Z,62.20
2022-11-16T21:55:01.521Z,62.57
2022-11-16T21:57:28.043Z,63.70
2022-11-16T21:59:54.671Z,62.75
2022-11-16T22:02:22.285Z,63.00
2022-11-16T22:04:50.879Z,62.85
2022-11-16T22:07:17.534Z,63.54
2022-11-16T22:09:45.073Z,63.03
2022-11-16T22:12:11.502Z,63.62
2022-11-16T22:14:37.943Z,65.20
2022-11-16T22:17:04.355Z,65.10
2022-11-16T22:19:30.758Z,65.28
2022-11-16T22:21:57.184Z,65.32
2022-11-16T22:24:23.685Z,65.48
2022-11-16T22:26:50.134Z,66.07
2022-11-16T22:29:16.540Z,66.28
2022-11-16T22:31:42.962Z,66.88
2022-11-16T22:34:09.379Z,67.27
2022-11-16T22:36:35.760Z,66.71
2022-11-16T22:39:02.160Z,66.46
2022-11-16T22:41:28.544Z,66.16
2022-11-16T22:43:54.995Z,66.25
2022-11-16T22:46:21.895Z,65.77
2022-11-16T22:48:48.322Z,65.68
2022-11-16T22:51:14.712Z,65.43
2022-11-16T22:53:41.167Z,64.70
2022-11-16T22:56:08.278Z,64.27
2022-11-16T22:58:34.725Z,63.80
2022-11-16T23:01:01.446Z,64.07
2022-11-16T23:03:29.082Z,64.06
2022-11-16T23:05:55.527Z,63.72
2022-11-16T23:08:21.927Z,63.77
2022-11-16T23:10:49.331Z,64.17
2022-11-16T23:13:15.764Z,63.42
2022-11-16T23:15:42.191Z,64.10
2022-11-16T23:18:08.580Z,62.69
2022-11-16T23:20:34.978Z,63.06
2022-11-16T23:23:01.392Z,63.38
2022-11-16T23:25:27.810Z,64.20
2022-11-16T23:27:54.213Z,64.13
2022-11-16T23:30:20.589Z,64.30
2022-11-16T23:32:47.074Z,64.24
2022-11-16T23:35:13.476Z,62.37
2022-11-16T23:37:39.877Z,62.03
2022-11-16T23:40:06.268Z,62.21
2022-11-16T23:42:33.520Z,61.96
2022-11-16T23:44:59.910Z,61.48
2022-11-16T23:47:26.731Z,62.08
2022-11-16T23:49:53.125Z,62.25
2022-11-16T23:52:19.516Z,62.04
2022-11-16T23:54:45.947Z,61.29
2022-11-16T23:57:13.094Z,60.92
2022-11-16T23:59:39.519Z,61.25
